createdAt,value
2023-01-30T00:01:01.666Z,0.40
2023-01-30T00:03:29.036Z,0.20
2023-01-30T00:05:56.507Z,0.50
2023-01-30T00:08:24.018Z,0.40
2023-01-30T00:10:51.418Z,0.47
2023-01-30T00:13:18.695Z,0.50
2023-01-30T00:15:46.111Z,0.47
2023-01-30T00:18:13.938Z,0.40
2023-01-30T00:20:41.255Z,0.40
2023-01-30T00:23:08.563Z,0.40
2023-01-30T00:25:36.095Z,0.50
2023-01-30T00:28:03.884Z,0.30
2023-01-30T00:30:31.822Z,0.40
2023-01-30T00:33:00.124Z,0.50
2023-01-30T00:35:30.415Z,0.50
2023-01-30T00:37:58.855Z,0.50
2023-01-30T00:40:28.117Z,0.50
2023-01-30T00:43:15.258Z,0.50
2023-01-30T00:46:03.437Z,0.50
2023-01-30T00:48:31.362Z,0.50
2023-01-30T00:50:58.961Z,0.50
2023-01-30T00:53:26.522Z,0.57
2023-01-30T00:55:55.333Z,0.50
2023-01-30T00:58:23.635Z,0.43
2023-01-30T01:00:51.991Z,0.60
2023-01-30T01:03:20.228Z,0.60
2023-01-30T01:05:47.912Z,0.50
2023-01-30T01:08:16.093Z,0.60
2023-01-30T01:10:43.570Z,0.60
2023-01-30T01:13:11.053Z,0.50
2023-01-30T01:15:38.797Z,0.70
2023-01-30T01:18:06.733Z,0.60
2023-01-30T01:20:34.071Z,0.70
2023-01-30T01:23:01.552Z,1.00
2023-01-30T01:25:29.062Z,0.90
2023-01-30T01:27:56.503Z,1.10
2023-01-30T01:30:23.925Z,0.80
2023-01-30T01:32:51.291Z,1.13
2023-01-30T01:35:20.290Z,1.30
2023-01-30T01:37:47.871Z,1.38
2023-01-30T01:40:38.563Z,1.23
2023-01-30T01:43:23.550Z,1.30
2023-01-30T01:46:22.388Z,1.00
2023-01-30T01:48:55.672Z,1.13
2023-01-30T01:51:31.012Z,1.48
2023-01-30T01:54:20.586Z,1.30
2023-01-30T01:56:49.660Z,1.40
2023-01-30T01:59:30.631Z,1.27
2023-01-30T02:02:05.966Z,1.33
2023-01-30T02:04:53.064Z,1.20
2023-01-30T02:07:22.227Z,0.97
2023-01-30T02:09:51.064Z,1.08
2023-01-30T02:12:18.643Z,1.42
2023-01-30T02:14:46.558Z,1.52
2023-01-30T02:17:14.135Z,1.02
2023-01-30T02:19:47.474Z,1.20
2023-01-30T02:22:45.501Z,1.20
2023-01-30T02:25:31.512Z,1.27
2023-01-30T02:28:47.641Z,1.35
2023-01-30T02:31:15.136Z,1.30
2023-01-30T02:33:52.006Z,1.20
2023-01-30T02:37:00.528Z,1.35
2023-01-30T02:39:41.796Z,1.83
2023-01-30T02:42:20.705Z,1.35
2023-01-30T02:45:07.674Z,1.25
2023-01-30T02:47:49.752Z,1.70
2023-01-30T02:50:25.666Z,1.02
2023-01-30T02:52:53.582Z,1.33
2023-01-30T02:55:24.349Z,1.40
2023-01-30T02:57:52.554Z,0.80
2023-01-30T03:00:38.521Z,1.40
2023-01-30T03:03:15.896Z,1.15
2023-01-30T03:06:14.988Z,1.30
2023-01-30T03:09:21.353Z,1.15
2023-01-30T03:12:00.772Z,1.42
2023-01-30T03:14:40.615Z,1.38
2023-01-30T03:17:11.223Z,1.30
2023-01-30T03:19:38.980Z,1.75
2023-01-30T03:22:06.530Z,1.10
2023-01-30T03:24:34.116Z,1.52
2023-01-30T03:27:12.641Z,1.10
2023-01-30T03:29:41.101Z,1.73
2023-01-30T03:32:08.721Z,1.42
2023-01-30T03:34:36.129Z,1.90
2023-01-30T03:37:04.846Z,1.65
2023-01-30T03:39:35.431Z,1.50
2023-01-30T03:42:02.990Z,1.60
2023-01-30T03:44:30.643Z,1.50
2023-01-30T03:46:57.923Z,1.27
2023-01-30T03:49:25.603Z,1.73
2023-01-30T03:51:52.920Z,1.35
2023-01-30T03:54:20.282Z,1.85
2023-01-30T03:56:47.672Z,1.50
2023-01-30T03:59:15.122Z,1.20
2023-01-30T04:01:42.611Z,1.50
2023-01-30T04:04:09.949Z,1.33
2023-01-30T04:06:37.474Z,1.33
2023-01-30T04:09:04.903Z,1.00
2023-01-30T04:11:32.303Z,1.02
2023-01-30T04:13:59.789Z,1.95
2023-01-30T04:16:27.959Z,1.25
2023-01-30T04:18:55.762Z,1.45
2023-01-30T04:21:23.283Z,1.60
2023-01-30T04:23:50.712Z,1.60
2023-01-30T04:26:18.197Z,1.70
2023-01-30T04:28:45.767Z,1.33
2023-01-30T04:31:13.212Z,2.20
2023-01-30T04:33:40.852Z,1.60
2023-01-30T04:36:09.935Z,1.63
2023-01-30T04:38:38.274Z,1.52
2023-01-30T04:41:06.268Z,1.35
2023-01-30T04:43:33.881Z,1.63
2023-01-30T04:46:01.243Z,1.80
2023-01-30T04:48:28.942Z,1.35
2023-01-30T04:50:57.054Z,1.00
2023-01-30T04:53:25.401Z,1.50
2023-01-30T04:55:52.805Z,1.30
2023-01-30T04:58:20.160Z,1.40
2023-01-30T05:00:48.540Z,1.50
2023-01-30T05:03:16.866Z,1.40
2023-01-30T05:05:47.602Z,1.60
2023-01-30T05:08:16.130Z,0.93
2023-01-30T05:10:43.462Z,1.40
2023-01-30T05:13:10.878Z,1.60
2023-01-30T05:15:39.869Z,1.00
2023-01-30T05:18:08.383Z,1.10
2023-01-30T05:20:35.767Z,1.15
2023-01-30T05:23:03.216Z,1.10
2023-01-30T05:25:30.690Z,1.10
2023-01-30T05:27:58.180Z,1.20
2023-01-30T05:30:25.637Z,1.10
2023-01-30T05:32:53.200Z,0.65
2023-01-30T05:35:20.898Z,0.98
2023-01-30T05:37:52.159Z,0.90
2023-01-30T05:40:19.622Z,0.68
2023-01-30T05:42:46.992Z,1.00
2023-01-30T05:45:14.416Z,0.95
2023-01-30T05:47:41.820Z,0.80
2023-01-30T05:50:10.133Z,0.90
2023-01-30T05:52:37.582Z,1.20
2023-01-30T05:55:05.348Z,1.00
2023-01-30T05:57:33.616Z,0.80
2023-01-30T06:00:01.075Z,1.15
2023-01-30T06:02:28.658Z,1.00
2023-01-30T06:04:56.406Z,1.20
2023-01-30T06:07:23.990Z,1.40
2023-01-30T06:09:51.618Z,1.50
2023-01-30T06:12:19.316Z,1.20
2023-01-30T06:14:46.837Z,1.10
2023-01-30T06:17:14.518Z,0.90
2023-01-30T06:19:42.344Z,1.13
2023-01-30T06:22:16.336Z,0.80
2023-01-30T06:24:43.915Z,1.00
2023-01-30T06:27:11.578Z,1.20
2023-01-30T06:29:45.490Z,0.82
2023-01-30T06:32:15.606Z,1.08
2023-01-30T06:34:43.242Z,1.00
2023-01-30T06:37:10.644Z,1.10
2023-01-30T06:39:38.518Z,0.77
2023-01-30T06:42:07.627Z,0.60
2023-01-30T06:44:35.254Z,0.80
2023-01-30T06:47:02.821Z,0.70
2023-01-30T06:49:30.315Z,0.57
2023-01-30T06:51:58.151Z,0.65
2023-01-30T06:54:26.045Z,0.50
2023-01-30T06:56:54.174Z,0.50
2023-01-30T06:59:22.716Z,0.65
2023-01-30T07:01:51.379Z,0.70
2023-01-30T07:04:19.282Z,0.60
2023-01-30T07:06:47.717Z,0.80
2023-01-30T07:09:15.418Z,0.50
2023-01-30T07:11:47.985Z,0.88
2023-01-30T07:14:15.409Z,0.80
2023-01-30T07:16:45.602Z,0.70
2023-01-30T07:19:13.589Z,1.00
2023-01-30T07:21:43.273Z,0.93
2023-01-30T07:24:10.881Z,1.00
2023-01-30T07:26:50.114Z,1.08
2023-01-30T07:29:18.163Z,1.02
2023-01-30T07:31:49.096Z,1.50
2023-01-30T07:34:18.142Z,0.82
2023-01-30T07:36:46.328Z,1.52
2023-01-30T07:39:15.088Z,1.50
2023-01-30T07:41:42.855Z,1.23
2023-01-30T07:44:13.286Z,1.40
2023-01-30T07:46:42.107Z,1.50
2023-01-30T07:49:14.473Z,1.60
2023-01-30T07:51:42.297Z,1.73
2023-01-30T07:54:11.188Z,1.45
2023-01-30T07:56:40.189Z,1.75
2023-01-30T07:59:07.808Z,1.80
2023-01-30T08:01:35.635Z,1.50
2023-01-30T08:04:06.478Z,1.60
2023-01-30T08:06:40.940Z,1.70
2023-01-30T08:09:09.545Z,1.40
2023-01-30T08:11:40.463Z,1.67
2023-01-30T08:14:08.272Z,1.42
2023-01-30T08:16:37.300Z,1.75
2023-01-30T08:19:07.354Z,1.20
2023-01-30T08:21:36.364Z,1.40
2023-01-30T08:24:04.128Z,1.45
2023-01-30T08:26:31.958Z,1.52
2023-01-30T08:28:59.850Z,1.30
2023-01-30T08:31:28.816Z,1.90
2023-01-30T08:33:56.325Z,1.40
2023-01-30T08:36:23.796Z,1.60
2023-01-30T08:38:51.537Z,1.83
2023-01-30T08:41:19.321Z,1.58
2023-01-30T08:43:47.628Z,1.50
2023-01-30T08:46:15.593Z,1.42
2023-01-30T08:48:49.872Z,1.30
2023-01-30T08:51:20.685Z,1.58
2023-01-30T08:53:48.278Z,1.67
2023-01-30T08:56:15.969Z,1.42
2023-01-30T08:58:45.940Z,1.50
2023-01-30T09:01:14.520Z,1.52
2023-01-30T09:03:43.666Z,1.40
2023-01-30T09:06:11.630Z,1.58
2023-01-30T09:08:39.174Z,1.15
2023-01-30T09:11:06.972Z,1.20
2023-01-30T09:13:36.959Z,1.55
2023-01-30T09:16:07.489Z,1.50
2023-01-30T09:18:37.853Z,1.48
2023-01-30T09:21:06.161Z,1.50
2023-01-30T09:23:34.037Z,1.50
2023-01-30T09:26:04.000Z,1.70
2023-01-30T09:28:32.798Z,1.40
2023-01-30T09:31:04.999Z,2.33
2023-01-30T09:33:32.572Z,1.38
2023-01-30T09:36:00.150Z,1.40
2023-01-30T09:38:28.623Z,1.60
2023-01-30T09:41:12.150Z,1.10
2023-01-30T09:44:17.394Z,1.52
2023-01-30T09:46:51.507Z,1.50
2023-01-30T09:49:44.284Z,2.25
2023-01-30T09:52:31.731Z,1.52
2023-01-30T09:55:29.368Z,1.77
2023-01-30T09:57:59.544Z,1.35
2023-01-30T10:00:42.341Z,1.60
2023-01-30T10:03:51.157Z,1.42
2023-01-30T10:06:24.194Z,1.20
2023-01-30T10:08:59.231Z,1.58
2023-01-30T10:11:30.405Z,0.85
2023-01-30T10:14:23.468Z,1.45
2023-01-30T10:17:08.356Z,1.35
2023-01-30T10:20:03.954Z,1.50
2023-01-30T10:22:58.857Z,1.35
2023-01-30T10:25:52.998Z,1.50
2023-01-30T10:28:30.317Z,1.02
2023-01-30T10:31:16.863Z,1.35
2023-01-30T10:34:11.094Z,1.60
2023-01-30T10:36:56.882Z,1.55
2023-01-30T10:39:34.270Z,1.25
2023-01-30T10:42:25.318Z,1.45
2023-01-30T10:44:55.817Z,1.10
2023-01-30T10:47:46.230Z,1.65
2023-01-30T10:50:16.417Z,0.90
2023-01-30T10:52:54.753Z,1.25
2023-01-30T10:55:38.622Z,1.58
2023-01-30T10:58:18.175Z,1.30
2023-01-30T11:01:06.829Z,1.27
2023-01-30T11:03:45.938Z,1.90
2023-01-30T11:06:18.020Z,1.20
2023-01-30T11:08:47.821Z,1.50
2023-01-30T11:11:25.003Z,1.35
2023-01-30T11:14:04.858Z,1.00
2023-01-30T11:16:35.331Z,1.27
2023-01-30T11:19:22.721Z,1.08
2023-01-30T11:21:53.254Z,1.45
2023-01-30T11:24:25.381Z,1.27
2023-01-30T11:26:53.728Z,1.42
2023-01-30T11:29:33.731Z,1.30
2023-01-30T11:32:11.788Z,1.20
2023-01-30T11:34:42.025Z,1.80
2023-01-30T11:37:33.670Z,1.23
2023-01-30T11:40:16.292Z,1.20
2023-01-30T11:43:02.281Z,1.10
2023-01-30T11:45:35.354Z,1.30
2023-01-30T11:48:23.552Z,1.35
2023-01-30T11:51:04.547Z,1.20
2023-01-30T11:54:07.066Z,1.00
2023-01-30T11:56:38.909Z,1.20
2023-01-30T11:59:39.449Z,1.23
2023-01-30T12:02:35.659Z,1.08
2023-01-30T12:05:18.236Z,1.30
2023-01-30T12:07:49.396Z,1.20
2023-01-30T12:10:30.331Z,1.02
2023-01-30T12:13:03.712Z,0.93
2023-01-30T12:15:35.564Z,1.00
2023-01-30T12:18:32.120Z,1.00
2023-01-30T12:21:01.116Z,1.27
2023-01-30T12:23:38.618Z,1.13
2023-01-30T12:26:32.169Z,1.30
2023-01-30T12:29:30.620Z,1.10
2023-01-30T12:32:20.920Z,1.00
2023-01-30T12:34:48.688Z,1.10
2023-01-30T12:37:26.485Z,1.23
2023-01-30T12:39:59.893Z,0.80
2023-01-30T12:42:30.964Z,1.10
2023-01-30T12:45:20.506Z,1.30
2023-01-30T12:48:06.136Z,1.00
2023-01-30T12:50:46.976Z,1.35
2023-01-30T12:53:23.132Z,1.00
2023-01-30T12:56:10.971Z,1.20
2023-01-30T12:59:09.151Z,1.33
2023-01-30T13:02:10.020Z,1.17
2023-01-30T13:05:07.191Z,1.20
2023-01-30T13:07:59.996Z,1.10
2023-01-30T13:10:45.763Z,0.95
2023-01-30T13:13:31.545Z,1.40
2023-01-30T13:16:06.555Z,0.90
2023-01-30T13:18:46.411Z,0.88
2023-01-30T13:21:40.413Z,0.90
2023-01-30T13:24:20.253Z,1.20
2023-01-30T13:26:50.287Z,0.90
2023-01-30T13:29:37.402Z,1.10
2023-01-30T13:32:18.331Z,0.80
2023-01-30T13:34:48.185Z,1.02
2023-01-30T13:37:18.750Z,1.10
2023-01-30T13:40:07.070Z,0.90
2023-01-30T13:42:40.649Z,1.00
2023-01-30T13:45:22.396Z,0.85
2023-01-30T13:48:08.876Z,0.82
2023-01-30T13:50:45.105Z,0.90
2023-01-30T13:53:25.551Z,1.23
2023-01-30T13:56:16.234Z,1.70
2023-01-30T13:59:08.769Z,1.10
2023-01-30T14:02:04.996Z,1.10
2023-01-30T14:05:05.879Z,1.00
2023-01-30T14:07:43.414Z,1.02
2023-01-30T14:10:11.366Z,0.93
2023-01-30T14:12:53.921Z,1.13
2023-01-30T14:15:29.099Z,0.90
2023-01-30T14:18:07.569Z,0.90
2023-01-30T14:20:37.688Z,1.17
2023-01-30T14:23:20.181Z,1.17
2023-01-30T14:25:52.949Z,1.00
2023-01-30T14:28:20.499Z,1.77
2023-01-30T14:30:49.086Z,1.00
2023-01-30T14:33:22.043Z,1.02
2023-01-30T14:36:01.220Z,1.98
2023-01-30T14:38:32.545Z,1.20
2023-01-30T14:41:02.859Z,1.23
2023-01-30T14:43:49.715Z,0.82
2023-01-30T14:46:18.434Z,1.10
2023-01-30T14:48:55.847Z,1.10
2023-01-30T14:51:47.915Z,0.90
2023-01-30T14:54:15.235Z,1.60
2023-01-30T14:56:51.476Z,1.40
2023-01-30T15:00:14.160Z,1.30
2023-01-30T15:02:49.532Z,1.20
2023-01-30T15:05:34.046Z,1.30
2023-01-30T15:08:24.599Z,1.40
2023-01-30T15:10:54.988Z,1.40
2023-01-30T15:13:47.631Z,1.30
2023-01-30T15:16:36.024Z,0.85
2023-01-30T15:19:36.500Z,1.17
2023-01-30T15:22:20.803Z,1.23
2023-01-30T15:25:10.974Z,1.70
2023-01-30T15:36:37.344Z,1.00
2023-01-30T15:39:16.689Z,0.87
2023-01-30T15:41:45.913Z,0.80
2023-01-30T15:44:22.430Z,1.40
2023-01-30T15:46:59.943Z,0.90
2023-01-30T15:49:43.682Z,0.90
2023-01-30T15:52:16.074Z,1.20
2023-01-30T15:54:50.094Z,1.20
2023-01-30T15:57:29.683Z,1.10
2023-01-30T15:59:58.004Z,1.20
2023-01-30T16:02:34.146Z,1.10
2023-01-30T16:05:20.670Z,1.17
2023-01-30T16:07:50.300Z,1.13
2023-01-30T16:10:23.869Z,1.55
2023-01-30T16:12:56.285Z,1.07
2023-01-30T16:15:40.061Z,1.00
2023-01-30T16:18:33.083Z,1.10
2023-01-30T16:21:09.552Z,1.00
2023-01-30T16:24:14.786Z,0.97
2023-01-30T16:26:46.239Z,1.20
2023-01-30T16:31:52.683Z,1.20
2023-01-30T16:34:33.425Z,0.95
2023-01-30T16:40:11.896Z,0.80
2023-01-30T16:43:04.204Z,1.00
2023-01-30T16:52:19.006Z,0.80
2023-01-30T16:57:50.364Z,0.82
2023-01-30T17:06:12.751Z,1.50
2023-01-30T17:11:41.591Z,0.80
2023-01-30T17:14:43.338Z,1.05
2023-01-30T17:17:15.695Z,0.50
2023-01-30T17:19:46.378Z,0.60
2023-01-30T17:22:24.517Z,0.65
2023-01-30T17:27:29.728Z,0.83
2023-01-30T17:35:34.218Z,0.90
2023-01-30T17:38:05.615Z,0.85
2023-01-30T17:40:38.986Z,1.00
2023-01-30T17:43:09.382Z,0.80
2023-01-30T17:45:36.966Z,0.57
2023-01-30T17:48:08.095Z,0.57
2023-01-30T17:50:36.759Z,0.68
2023-01-30T17:53:05.201Z,0.60
2023-01-30T17:55:35.208Z,0.80
2023-01-30T18:00:36.336Z,0.53
2023-01-30T18:03:03.862Z,0.57
2023-01-30T18:05:31.238Z,0.60
2023-01-30T18:07:58.682Z,0.85
2023-01-30T18:10:26.334Z,0.40
2023-01-30T18:12:53.653Z,0.50
2023-01-30T18:15:21.346Z,0.50
2023-01-30T18:17:49.965Z,0.67
2023-01-30T18:20:20.276Z,0.40
2023-01-30T18:22:48.240Z,0.70
2023-01-30T18:25:16.347Z,0.47
2023-01-30T18:27:45.230Z,0.43
2023-01-30T18:30:16.632Z,0.60
2023-01-30T18:32:52.577Z,0.50
2023-01-30T18:35:21.766Z,0.40
2023-01-30T18:37:50.027Z,0.30
2023-01-30T18:40:18.654Z,0.50
2023-01-30T18:42:48.403Z,0.20
2023-01-30T18:45:15.963Z,0.40
2023-01-30T18:47:43.252Z,0.40
2023-01-30T18:50:11.116Z,0.40
2023-01-30T18:52:38.555Z,0.30
2023-01-30T18:55:06.283Z,0.40
2023-01-30T18:57:33.727Z,0.40
2023-01-30T19:00:01.074Z,0.40
2023-01-30T19:02:28.424Z,0.30
2023-01-30T19:04:55.826Z,0.37
2023-01-30T19:07:23.314Z,0.40
2023-01-30T19:09:50.646Z,0.30
2023-01-30T19:12:36.739Z,0.43
2023-01-30T19:15:05.011Z,0.30
2023-01-30T19:17:33.390Z,0.33
2023-01-30T19:20:02.489Z,0.30
2023-01-30T19:22:29.852Z,0.40
2023-01-30T19:24:57.155Z,0.30
2023-01-30T19:27:26.134Z,0.30
2023-01-30T19:29:53.617Z,0.40
2023-01-30T19:32:20.977Z,0.47
2023-01-30T19:34:50.820Z,0.30
2023-01-30T19:37:18.543Z,0.40
2023-01-30T19:39:46.072Z,0.40
2023-01-30T19:42:13.582Z,0.40
2023-01-30T19:44:41.187Z,0.30
2023-01-30T19:47:08.890Z,0.50
2023-01-30T19:49:37.590Z,0.47
2023-01-30T19:52:05.027Z,0.40
2023-01-30T19:54:33.115Z,0.40
2023-01-30T19:57:00.459Z,0.33
2023-01-30T19:59:27.909Z,0.50
2023-01-30T20:01:55.389Z,0.40
2023-01-30T20:04:22.834Z,0.30
2023-01-30T20:06:50.327Z,0.40
2023-01-30T20:09:19.375Z,0.40
2023-01-30T20:11:46.788Z,0.40
2023-01-30T20:14:14.100Z,0.50
2023-01-30T20:16:41.722Z,0.50
2023-01-30T20:19:18.323Z,0.40
2023-01-30T20:21:45.855Z,0.50
2023-01-30T20:27:02.349Z,0.53
2023-01-30T20:29:30.826Z,0.47
2023-01-30T20:34:39.415Z,0.40
2023-01-30T20:39:42.275Z,0.50
2023-01-30T20:42:09.846Z,0.60
2023-01-30T20:44:37.446Z,0.50
2023-01-30T20:47:05.877Z,0.30
2023-01-30T20:49:33.496Z,0.40
2023-01-30T20:52:00.930Z,0.43
2023-01-30T20:54:28.509Z,0.40
2023-01-30T20:56:56.763Z,0.40
2023-01-30T20:59:24.969Z,0.40
2023-01-30T21:01:53.076Z,0.40
2023-01-30T21:04:21.840Z,0.50
2023-01-30T21:06:49.351Z,0.40
2023-01-30T21:09:22.379Z,0.50
2023-01-30T21:11:51.285Z,0.53
2023-01-30T21:14:18.870Z,0.40
2023-01-30T21:16:46.779Z,0.30
2023-01-30T21:19:16.356Z,0.50
2023-01-30T21:21:51.185Z,0.40
2023-01-30T21:24:22.272Z,0.40
2023-01-30T21:26:50.204Z,0.37
2023-01-30T21:29:21.555Z,0.50
2023-01-30T21:31:49.421Z,0.40
2023-01-30T21:34:17.045Z,0.50
2023-01-30T21:37:12.899Z,0.30
2023-01-30T21:39:59.288Z,0.30
2023-01-30T21:42:45.390Z,0.40
2023-01-30T21:45:13.100Z,0.40
2023-01-30T21:47:41.022Z,0.30
2023-01-30T21:50:09.419Z,0.47
2023-01-30T21:52:37.056Z,0.30
2023-01-30T21:55:05.421Z,0.63
2023-01-30T21:57:32.836Z,0.40
2023-01-30T22:00:00.351Z,0.40
2023-01-30T22:02:27.812Z,0.60
2023-01-30T22:04:55.155Z,0.40
2023-01-30T22:07:22.493Z,0.40
2023-01-30T22:09:49.820Z,0.40
2023-01-30T22:12:17.348Z,0.40
2023-01-30T22:14:44.674Z,0.30
2023-01-30T22:17:12.197Z,0.30
2023-01-30T22:19:39.769Z,0.40
2023-01-30T22:22:07.347Z,0.60
2023-01-30T22:24:34.827Z,0.43
2023-01-30T22:27:02.294Z,0.40
2023-01-30T22:29:29.676Z,0.50
2023-01-30T22:31:57.117Z,0.40
2023-01-30T22:34:24.560Z,0.40
2023-01-30T22:36:52.009Z,0.30
2023-01-30T22:39:19.361Z,0.50
2023-01-30T22:41:47.043Z,0.40
2023-01-30T22:44:14.558Z,0.40
2023-01-30T22:46:42.356Z,0.40
2023-01-30T22:49:10.464Z,0.60
2023-01-30T22:51:40.839Z,0.50
2023-01-30T22:54:15.770Z,0.40
2023-01-30T22:56:45.988Z,0.40
2023-01-30T22:59:14.274Z,0.50
2023-01-30T23:01:46.831Z,0.30
2023-01-30T23:04:16.381Z,0.40
2023-01-30T23:06:44.249Z,0.40
2023-01-30T23:09:15.763Z,0.50
2023-01-30T23:12:05.809Z,0.43
2023-01-30T23:14:33.460Z,0.50
2023-01-30T23:17:00.867Z,0.50
2023-01-30T23:19:28.364Z,0.40
2023-01-30T23:21:56.076Z,0.30
2023-01-30T23:24:23.487Z,0.40
2023-01-30T23:26:51.638Z,0.40
2023-01-30T23:29:21.961Z,0.50
2023-01-30T23:31:49.312Z,0.50
2023-01-30T23:34:19.192Z,0.50
2023-01-30T23:36:47.237Z,0.30
2023-01-30T23:39:15.111Z,0.40
2023-01-30T23:41:43.180Z,0.40
2023-01-30T23:44:10.828Z,0.40
2023-01-30T23:46:40.811Z,0.40
2023-01-30T23:49:12.559Z,0.40
2023-01-30T23:51:42.357Z,0.30
2023-01-30T23:54:10.456Z,0.40
2023-01-30T23:56:40.365Z,0.30
2023-01-30T23:59:08.049Z,0.40
